Reklama
Líbí se Vám tento web? Budeme velmi rádi, pokud přidáte hodnocení +1

Seznam meteostanic a jejich METAR

Vyhledat místa podle abecedy:
A B C D E F G H I J K L M N O P Q R S T U V W X Y Z

Filtrovat:

ID stanice:
a/nebo
Název místa (fulltext):
 
Místo (ID)Naposledy načteno 
Rarotonga I (NCRG) 21.06.2018 02:00 UTC Zobrazit METAR
NCRG 210200Z 06008KT 9999 FEW023 BKN290 25/19 Q1013
Reykjavik (BIRK) 21.06.2018 02:00 UTC Zobrazit METAR
BIRK 210200Z 17005KT CAVOK 05/02 Q1022
Riga (EVRA) 21.06.2018 01:50 UTC Zobrazit METAR
EVRA 210150Z 21006KT 9999 SCT042 16/12 Q1010 NOSIG
Rimini (LIPR) 21.06.2018 01:45 UTC Zobrazit METAR
LIPR 210145Z 00000KT CAVOK 19/19 Q1017
Riyadh (OERY) 12.05.2018 13:00 UTC Zobrazit METAR
OERY 121300Z 24018G29KT 1500 BLDU NSC 41/M04 Q1003
Road Town (TUPJ) 21.06.2018 00:00 UTC Zobrazit METAR
TUPJ 210000Z 17005KT 10SM BKN019 28/23 A3008 RMK Q1018
Rodos (LGRP) 21.06.2018 01:50 UTC Zobrazit METAR
LGRP 210150Z 23007KT 9999 FEW018 23/22 Q1012 NOSIG
Rome (LIRF) 21.06.2018 01:50 UTC Zobrazit METAR
LIRF 210150Z 35002KT CAVOK 19/17 Q1017 NOSIG
Roseau (TDCF) 20.06.2018 22:00 UTC Zobrazit METAR
TDCF 202200Z 10007KT 9999 FEW020 29/18 Q1015
Rotterdam (EHRD) 21.06.2018 01:55 UTC Zobrazit METAR
EHRD 210155Z AUTO 28005KT 240V320 9999 BKN031 OVC037 16/15 Q1016 TEMPO BKN008
Rzeszow (EPRZ) 21.06.2018 02:00 UTC Zobrazit METAR
EPRZ 210200Z VRB01KT CAVOK 15/14 Q1018
Reklama

Počasí na Váš email

Emaily jsou bez reklamy a bez spamu



Odhlásit newsletter

Reklama


Lunární kalendář

  • 28.06.
  • 06.07.
  • 13.07.
  • 19.07.



Slunečno.cz na Google+

Reklama


Reklama
Povinné ručení
Reklama




Reklama